sensor_id;sensor_type;location;lat;lon;timestamp;temperature;humidity
3312;DHT22;1668;49.648;8.570;2022-09-27T00:02:22;10.50;99.90
3312;DHT22;1668;49.648;8.570;2022-09-27T00:05:00;10.50;99.90
3312;DHT22;1668;49.648;8.570;2022-09-27T00:07:28;10.50;99.90
3312;DHT22;1668;49.648;8.570;2022-09-27T00:09:55;10.50;99.90
3312;DHT22;1668;49.648;8.570;2022-09-27T00:12:22;10.50;99.90
3312;DHT22;1668;49.648;8.570;2022-09-27T00:14:49;10.50;99.90
3312;DHT22;1668;49.648;8.570;2022-09-27T00:17:15;10.50;99.90
3312;DHT22;1668;49.648;8.570;2022-09-27T00:19:42;10.40;99.90
3312;DHT22;1668;49.648;8.570;2022-09-27T00:22:11;10.50;99.90
3312;DHT22;1668;49.648;8.570;2022-09-27T00:24:38;10.50;99.90
3312;DHT22;1668;49.648;8.570;2022-09-27T00:27:05;10.50;99.90
3312;DHT22;1668;49.648;8.570;2022-09-27T00:29:32;10.50;99.90
3312;DHT22;1668;49.648;8.570;2022-09-27T00:31:59;10.50;99.90
3312;DHT22;1668;49.648;8.570;2022-09-27T00:34:26;10.50;99.90
3312;DHT22;1668;49.648;8.570;2022-09-27T00:36:53;10.50;99.90
3312;DHT22;1668;49.648;8.570;2022-09-27T00:39:21;10.50;99.90
3312;DHT22;1668;49.648;8.570;2022-09-27T00:41:48;10.50;99.90
3312;DHT22;1668;49.648;8.570;2022-09-27T00:47:24;10.50;99.90
3312;DHT22;1668;49.648;8.570;2022-09-27T00:49:54;10.50;99.90
3312;DHT22;1668;49.648;8.570;2022-09-27T00:52:29;10.50;99.90
3312;DHT22;1668;49.648;8.570;2022-09-27T00:55:02;10.50;99.90
3312;DHT22;1668;49.648;8.570;2022-09-27T00:57:30;10.50;99.90
3312;DHT22;1668;49.648;8.570;2022-09-27T01:00:01;10.50;99.90
3312;DHT22;1668;49.648;8.570;2022-09-27T01:02:28;10.50;99.90
3312;DHT22;1668;49.648;8.570;2022-09-27T01:04:56;10.50;99.90
3312;DHT22;1668;49.648;8.570;2022-09-27T01:07:23;10.50;99.90
3312;DHT22;1668;49.648;8.570;2022-09-27T01:09:50;10.50;99.90
3312;DHT22;1668;49.648;8.570;2022-09-27T01:12:24;10.50;99.90
3312;DHT22;1668;49.648;8.570;2022-09-27T01:15:05;10.50;99.90
3312;DHT22;1668;49.648;8.570;2022-09-27T01:17:43;10.50;99.90
3312;DHT22;1668;49.648;8.570;2022-09-27T01:20:44;10.50;99.90
3312;DHT22;1668;49.648;8.570;2022-09-27T01:23:41;10.50;99.90
3312;DHT22;1668;49.648;8.570;2022-09-27T01:26:12;10.50;99.90
3312;DHT22;1668;49.648;8.570;2022-09-27T01:28:55;10.50;99.90
3312;DHT22;1668;49.648;8.570;2022-09-27T01:31:29;10.50;99.90
3312;DHT22;1668;49.648;8.570;2022-09-27T01:34:02;10.50;99.90
3312;DHT22;1668;49.648;8.570;2022-09-27T01:36:36;10.50;99.90
3312;DHT22;1668;49.648;8.570;2022-09-27T01:39:16;10.50;99.90
3312;DHT22;1668;49.648;8.570;2022-09-27T01:41:52;10.50;99.90
3312;DHT22;1668;49.648;8.570;2022-09-27T01:44:28;10.50;99.90
3312;DHT22;1668;49.648;8.570;2022-09-27T01:47:02;10.50;99.90
3312;DHT22;1668;49.648;8.570;2022-09-27T01:49:34;10.50;99.90
3312;DHT22;1668;49.648;8.570;2022-09-27T01:52:05;10.50;99.90
3312;DHT22;1668;49.648;8.570;2022-09-27T01:54:37;10.50;99.90
3312;DHT22;1668;49.648;8.570;2022-09-27T01:57:07;10.50;99.90
3312;DHT22;1668;49.648;8.570;2022-09-27T01:59:39;10.50;99.90
3312;DHT22;1668;49.648;8.570;2022-09-27T02:02:09;10.50;99.90
3312;DHT22;1668;49.648;8.570;2022-09-27T02:04:39;10.50;99.90
3312;DHT22;1668;49.648;8.570;2022-09-27T02:07:10;10.40;99.90
3312;DHT22;1668;49.648;8.570;2022-09-27T02:09:44;10.50;99.90
3312;DHT22;1668;49.648;8.570;2022-09-27T02:12:15;10.50;99.90
3312;DHT22;1668;49.648;8.570;2022-09-27T02:14:47;10.40;99.90
3312;DHT22;1668;49.648;8.570;2022-09-27T02:17:22;10.50;99.90
3312;DHT22;1668;49.648;8.570;2022-09-27T02:19:55;10.50;99.90
3312;DHT22;1668;49.648;8.570;2022-09-27T02:22:31;10.40;99.90
3312;DHT22;1668;49.648;8.570;2022-09-27T02:25:03;10.40;99.90
3312;DHT22;1668;49.648;8.570;2022-09-27T02:27:36;10.40;99.90
3312;DHT22;1668;49.648;8.570;2022-09-27T02:30:07;10.50;99.90
3312;DHT22;1668;49.648;8.570;2022-09-27T02:32:37;10.50;99.90
3312;DHT22;1668;49.648;8.570;2022-09-27T02:35:09;10.50;99.90
3312;DHT22;1668;49.648;8.570;2022-09-27T02:37:38;10.50;99.90
3312;DHT22;1668;49.648;8.570;2022-09-27T02:40:05;10.50;99.90
3312;DHT22;1668;49.648;8.570;2022-09-27T02:42:33;10.40;99.90
3312;DHT22;1668;49.648;8.570;2022-09-27T02:45:01;10.40;99.90
3312;DHT22;1668;49.648;8.570;2022-09-27T02:47:40;10.40;99.90
3312;DHT22;1668;49.648;8.570;2022-09-27T02:50:25;10.40;99.90
3312;DHT22;1668;49.648;8.570;2022-09-27T02:52:58;10.40;99.90
3312;DHT22;1668;49.648;8.570;2022-09-27T02:55:42;10.40;99.90
3312;DHT22;1668;49.648;8.570;2022-09-27T02:58:19;10.40;99.90
3312;DHT22;1668;49.648;8.570;2022-09-27T03:00:55;10.40;99.90
3312;DHT22;1668;49.648;8.570;2022-09-27T03:03:29;10.40;99.90
3312;DHT22;1668;49.648;8.570;2022-09-27T03:06:05;10.40;99.90
3312;DHT22;1668;49.648;8.570;2022-09-27T03:08:33;10.40;99.90
3312;DHT22;1668;49.648;8.570;2022-09-27T03:11:02;10.40;99.90
3312;DHT22;1668;49.648;8.570;2022-09-27T03:13:29;10.40;99.90
3312;DHT22;1668;49.648;8.570;2022-09-27T03:15:56;10.40;99.90
3312;DHT22;1668;49.648;8.570;2022-09-27T03:18:23;10.40;99.90
3312;DHT22;1668;49.648;8.570;2022-09-27T03:20:53;10.40;99.90
3312;DHT22;1668;49.648;8.570;2022-09-27T03:23:20;10.40;99.90
3312;DHT22;1668;49.648;8.570;2022-09-27T03:25:46;10.40;99.90
3312;DHT22;1668;49.648;8.570;2022-09-27T03:28:14;10.40;99.90
3312;DHT22;1668;49.648;8.570;2022-09-27T03:30:43;10.40;99.90
3312;DHT22;1668;49.648;8.570;2022-09-27T03:33:10;10.40;99.90
3312;DHT22;1668;49.648;8.570;2022-09-27T03:35:37;10.40;99.90
3312;DHT22;1668;49.648;8.570;2022-09-27T03:38:05;10.40;99.90
3312;DHT22;1668;49.648;8.570;2022-09-27T03:40:32;10.40;99.90
3312;DHT22;1668;49.648;8.570;2022-09-27T03:43:00;10.40;99.90
3312;DHT22;1668;49.648;8.570;2022-09-27T03:45:26;10.40;99.90
3312;DHT22;1668;49.648;8.570;2022-09-27T03:47:53;10.40;99.90
3312;DHT22;1668;49.648;8.570;2022-09-27T03:50:20;10.40;99.90
3312;DHT22;1668;49.648;8.570;2022-09-27T03:52:47;10.40;99.90
3312;DHT22;1668;49.648;8.570;2022-09-27T03:55:16;10.40;99.90
3312;DHT22;1668;49.648;8.570;2022-09-27T03:57:44;10.40;99.90
3312;DHT22;1668;49.648;8.570;2022-09-27T04:00:12;10.40;99.90
3312;DHT22;1668;49.648;8.570;2022-09-27T04:02:40;10.40;99.90
3312;DHT22;1668;49.648;8.570;2022-09-27T04:05:07;10.40;99.90
3312;DHT22;1668;49.648;8.570;2022-09-27T04:07:34;10.40;99.90
3312;DHT22;1668;49.648;8.570;2022-09-27T04:10:03;10.40;99.90
3312;DHT22;1668;49.648;8.570;2022-09-27T04:12:31;10.40;99.90
3312;DHT22;1668;49.648;8.570;2022-09-27T04:14:58;10.30;99.90
3312;DHT22;1668;49.648;8.570;2022-09-27T04:17:26;10.30;99.90
3312;DHT22;1668;49.648;8.570;2022-09-27T04:19:53;10.30;99.90
3312;DHT22;1668;49.648;8.570;2022-09-27T04:22:20;10.30;99.90
3312;DHT22;1668;49.648;8.570;2022-09-27T04:24:48;10.30;99.90
3312;DHT22;1668;49.648;8.570;2022-09-27T04:27:15;10.30;99.90
3312;DHT22;1668;49.648;8.570;2022-09-27T04:29:43;10.30;99.90
3312;DHT22;1668;49.648;8.570;2022-09-27T04:32:11;10.30;99.90
3312;DHT22;1668;49.648;8.570;2022-09-27T04:34:40;10.30;99.90
3312;DHT22;1668;49.648;8.570;2022-09-27T04:37:24;10.30;99.90
3312;DHT22;1668;49.648;8.570;2022-09-27T04:39:52;10.30;99.90
3312;DHT22;1668;49.648;8.570;2022-09-27T04:42:19;10.30;99.90
3312;DHT22;1668;49.648;8.570;2022-09-27T04:44:47;10.20;99.90
3312;DHT22;1668;49.648;8.570;2022-09-27T04:47:14;10.20;99.90
3312;DHT22;1668;49.648;8.570;2022-09-27T04:49:42;10.30;99.90
3312;DHT22;1668;49.648;8.570;2022-09-27T04:52:09;10.30;99.90
3312;DHT22;1668;49.648;8.570;2022-09-27T04:54:36;10.30;99.90
3312;DHT22;1668;49.648;8.570;2022-09-27T04:57:03;10.30;99.90
3312;DHT22;1668;49.648;8.570;2022-09-27T04:59:30;10.20;99.90
3312;DHT22;1668;49.648;8.570;2022-09-27T05:01:58;10.20;99.90
3312;DHT22;1668;49.648;8.570;2022-09-27T05:04:26;10.30;99.90
3312;DHT22;1668;49.648;8.570;2022-09-27T05:06:53;10.20;99.90
3312;DHT22;1668;49.648;8.570;2022-09-27T05:09:19;10.30;99.90
3312;DHT22;1668;49.648;8.570;2022-09-27T05:11:47;10.20;99.90
3312;DHT22;1668;49.648;8.570;2022-09-27T05:14:14;10.20;99.90
3312;DHT22;1668;49.648;8.570;2022-09-27T05:16:41;10.20;99.90
3312;DHT22;1668;49.648;8.570;2022-09-27T05:19:09;10.20;99.90
3312;DHT22;1668;49.648;8.570;2022-09-27T05:21:36;10.20;99.90
3312;DHT22;1668;49.648;8.570;2022-09-27T05:24:03;10.20;99.90
3312;DHT22;1668;49.648;8.570;2022-09-27T05:26:30;10.20;99.90
3312;DHT22;1668;49.648;8.570;2022-09-27T05:28:57;10.20;99.90
3312;DHT22;1668;49.648;8.570;2022-09-27T05:31:24;10.20;99.90
3312;DHT22;1668;49.648;8.570;2022-09-27T05:33:51;10.20;99.90
3312;DHT22;1668;49.648;8.570;2022-09-27T05:36:19;10.20;99.90
3312;DHT22;1668;49.648;8.570;2022-09-27T05:38:48;10.20;99.90
3312;DHT22;1668;49.648;8.570;2022-09-27T05:41:15;10.20;99.90
3312;DHT22;1668;49.648;8.570;2022-09-27T05:43:42;10.10;99.90
3312;DHT22;1668;49.648;8.570;2022-09-27T05:46:10;10.20;99.90
3312;DHT22;1668;49.648;8.570;2022-09-27T05:48:37;10.20;99.90
3312;DHT22;1668;49.648;8.570;2022-09-27T05:51:05;10.20;99.90
3312;DHT22;1668;49.648;8.570;2022-09-27T05:53:33;10.20;99.90
3312;DHT22;1668;49.648;8.570;2022-09-27T05:56:01;10.20;99.90
3312;DHT22;1668;49.648;8.570;2022-09-27T05:58:28;10.20;99.90
3312;DHT22;1668;49.648;8.570;2022-09-27T06:00:55;10.20;99.90
3312;DHT22;1668;49.648;8.570;2022-09-27T06:03:22;10.20;99.90
3312;DHT22;1668;49.648;8.570;2022-09-27T06:05:49;10.20;99.90
3312;DHT22;1668;49.648;8.570;2022-09-27T06:08:16;10.20;99.90
3312;DHT22;1668;49.648;8.570;2022-09-27T06:10:46;10.20;99.90
3312;DHT22;1668;49.648;8.570;2022-09-27T06:13:14;10.20;99.90
3312;DHT22;1668;49.648;8.570;2022-09-27T06:15:44;10.20;99.90
3312;DHT22;1668;49.648;8.570;2022-09-27T06:18:13;10.20;99.90
3312;DHT22;1668;49.648;8.570;2022-09-27T06:20:41;10.20;99.90
3312;DHT22;1668;49.648;8.570;2022-09-27T06:23:10;10.20;99.90
3312;DHT22;1668;49.648;8.570;2022-09-27T06:25:38;10.20;99.90
3312;DHT22;1668;49.648;8.570;2022-09-27T06:28:07;10.20;99.90
3312;DHT22;1668;49.648;8.570;2022-09-27T06:30:37;10.20;99.90
3312;DHT22;1668;49.648;8.570;2022-09-27T06:33:05;10.30;99.90
3312;DHT22;1668;49.648;8.570;2022-09-27T06:35:34;10.30;99.90
3312;DHT22;1668;49.648;8.570;2022-09-27T06:38:02;10.30;99.90
3312;DHT22;1668;49.648;8.570;2022-09-27T06:40:30;10.30;99.90
3312;DHT22;1668;49.648;8.570;2022-09-27T06:43:01;10.30;99.90
3312;DHT22;1668;49.648;8.570;2022-09-27T06:45:30;10.30;99.90
3312;DHT22;1668;49.648;8.570;2022-09-27T06:47:58;10.30;99.90
3312;DHT22;1668;49.648;8.570;2022-09-27T06:50:27;10.30;99.90
3312;DHT22;1668;49.648;8.570;2022-09-27T06:52:54;10.30;99.90
3312;DHT22;1668;49.648;8.570;2022-09-27T06:55:21;10.30;99.90
3312;DHT22;1668;49.648;8.570;2022-09-27T06:57:52;10.30;99.90
3312;DHT22;1668;49.648;8.570;2022-09-27T07:00:39;10.30;99.90
3312;DHT22;1668;49.648;8.570;2022-09-27T07:03:08;10.40;99.90
3312;DHT22;1668;49.648;8.570;2022-09-27T07:05:36;10.40;99.90
3312;DHT22;1668;49.648;8.570;2022-09-27T07:08:03;10.40;99.90
3312;DHT22;1668;49.648;8.570;2022-09-27T07:10:34;10.40;99.90
3312;DHT22;1668;49.648;8.570;2022-09-27T07:13:02;10.40;99.90
3312;DHT22;1668;49.648;8.570;2022-09-27T07:15:30;10.40;99.90
3312;DHT22;1668;49.648;8.570;2022-09-27T07:17:58;10.50;99.90
3312;DHT22;1668;49.648;8.570;2022-09-27T07:20:25;10.50;99.90
3312;DHT22;1668;49.648;8.570;2022-09-27T07:22:52;10.50;99.90
3312;DHT22;1668;49.648;8.570;2022-09-27T07:25:19;10.50;99.90
3312;DHT22;1668;49.648;8.570;2022-09-27T07:27:47;10.50;99.90
3312;DHT22;1668;49.648;8.570;2022-09-27T07:30:14;10.50;99.90
3312;DHT22;1668;49.648;8.570;2022-09-27T07:32:42;10.50;99.90
3312;DHT22;1668;49.648;8.570;2022-09-27T07:35:11;10.60;99.90
3312;DHT22;1668;49.648;8.570;2022-09-27T07:37:39;10.60;99.90
3312;DHT22;1668;49.648;8.570;2022-09-27T07:40:08;10.50;99.90
3312;DHT22;1668;49.648;8.570;2022-09-27T07:42:35;10.60;99.90
3312;DHT22;1668;49.648;8.570;2022-09-27T07:45:04;10.60;99.90
3312;DHT22;1668;49.648;8.570;2022-09-27T07:47:31;10.60;99.90
3312;DHT22;1668;49.648;8.570;2022-09-27T07:49:59;10.60;99.90
3312;DHT22;1668;49.648;8.570;2022-09-27T07:52:27;10.70;99.90
3312;DHT22;1668;49.648;8.570;2022-09-27T07:54:54;10.70;99.90
3312;DHT22;1668;49.648;8.570;2022-09-27T07:57:21;10.70;99.90
3312;DHT22;1668;49.648;8.570;2022-09-27T07:59:48;10.70;99.90
3312;DHT22;1668;49.648;8.570;2022-09-27T08:02:16;10.60;99.90
3312;DHT22;1668;49.648;8.570;2022-09-27T08:04:43;10.70;99.90
3312;DHT22;1668;49.648;8.570;2022-09-27T08:07:11;10.70;99.90
3312;DHT22;1668;49.648;8.570;2022-09-27T08:09:40;10.70;99.90
3312;DHT22;1668;49.648;8.570;2022-09-27T08:12:07;10.70;99.90
3312;DHT22;1668;49.648;8.570;2022-09-27T08:14:35;10.70;99.90
3312;DHT22;1668;49.648;8.570;2022-09-27T08:17:02;10.80;99.90
3312;DHT22;1668;49.648;8.570;2022-09-27T08:19:29;10.80;99.90
3312;DHT22;1668;49.648;8.570;2022-09-27T08:21:56;10.90;99.90
3312;DHT22;1668;49.648;8.570;2022-09-27T08:24:23;10.90;99.90
3312;DHT22;1668;49.648;8.570;2022-09-27T08:26:51;10.90;99.90
3312;DHT22;1668;49.648;8.570;2022-09-27T08:29:19;10.90;99.90
3312;DHT22;1668;49.648;8.570;2022-09-27T08:31:46;10.90;99.90
3312;DHT22;1668;49.648;8.570;2022-09-27T08:34:13;10.90;99.90
3312;DHT22;1668;49.648;8.570;2022-09-27T08:36:42;10.90;99.90
3312;DHT22;1668;49.648;8.570;2022-09-27T08:39:09;10.90;99.90
3312;DHT22;1668;49.648;8.570;2022-09-27T08:41:37;10.90;99.90
3312;DHT22;1668;49.648;8.570;2022-09-27T08:44:12;11.00;99.90
3312;DHT22;1668;49.648;8.570;2022-09-27T08:46:51;11.00;99.90
3312;DHT22;1668;49.648;8.570;2022-09-27T08:49:24;11.10;99.90
3312;DHT22;1668;49.648;8.570;2022-09-27T08:51:53;11.10;99.90
3312;DHT22;1668;49.648;8.570;2022-09-27T08:54:23;11.20;99.90
3312;DHT22;1668;49.648;8.570;2022-09-27T08:56:52;11.30;99.90
3312;DHT22;1668;49.648;8.570;2022-09-27T08:59:24;11.30;99.90
3312;DHT22;1668;49.648;8.570;2022-09-27T09:01:53;11.40;99.90
3312;DHT22;1668;49.648;8.570;2022-09-27T09:04:23;11.40;99.90
3312;DHT22;1668;49.648;8.570;2022-09-27T09:07:00;11.40;99.90
3312;DHT22;1668;49.648;8.570;2022-09-27T09:09:38;11.50;74.60
3312;DHT22;1668;49.648;8.570;2022-09-27T09:12:19;11.50;99.90
3312;DHT22;1668;49.648;8.570;2022-09-27T09:15:15;11.50;99.90
3312;DHT22;1668;49.648;8.570;2022-09-27T09:20:42;11.50;64.70
3312;DHT22;1668;49.648;8.570;2022-09-27T09:26:36;11.50;44.70
3312;DHT22;1668;49.648;8.570;2022-09-27T09:29:15;11.50;62.00
3312;DHT22;1668;49.648;8.570;2022-09-27T09:31:54;11.50;14.50
3312;DHT22;1668;49.648;8.570;2022-09-27T09:34:25;11.50;1.00
3312;DHT22;1668;49.648;8.570;2022-09-27T09:36:57;11.50;1.00
3312;DHT22;1668;49.648;8.570;2022-09-27T09:39:32;11.50;1.00
3312;DHT22;1668;49.648;8.570;2022-09-27T09:42:07;11.50;1.00
3312;DHT22;1668;49.648;8.570;2022-09-27T09:44:42;11.60;1.00
3312;DHT22;1668;49.648;8.570;2022-09-27T09:47:26;11.60;1.00
3312;DHT22;1668;49.648;8.570;2022-09-27T09:49:57;11.60;1.00
3312;DHT22;1668;49.648;8.570;2022-09-27T09:52:31;11.70;1.00
3312;DHT22;1668;49.648;8.570;2022-09-27T09:55:06;11.80;1.00
3312;DHT22;1668;49.648;8.570;2022-09-27T09:57:51;11.90;1.00
3312;DHT22;1668;49.648;8.570;2022-09-27T10:00:21;11.90;1.00
3312;DHT22;1668;49.648;8.570;2022-09-27T10:02:52;12.10;1.00
3312;DHT22;1668;49.648;8.570;2022-09-27T10:05:22;12.20;1.00
3312;DHT22;1668;49.648;8.570;2022-09-27T10:07:51;12.20;1.00
3312;DHT22;1668;49.648;8.570;2022-09-27T10:10:19;12.30;1.00
3312;DHT22;1668;49.648;8.570;2022-09-27T10:12:48;12.30;1.00
3312;DHT22;1668;49.648;8.570;2022-09-27T10:15:17;12.30;1.00
3312;DHT22;1668;49.648;8.570;2022-09-27T10:17:47;12.30;1.00
3312;DHT22;1668;49.648;8.570;2022-09-27T10:20:27;12.30;1.00
3312;DHT22;1668;49.648;8.570;2022-09-27T10:22:58;12.30;1.00
3312;DHT22;1668;49.648;8.570;2022-09-27T10:25:44;12.30;1.00
3312;DHT22;1668;49.648;8.570;2022-09-27T10:28:32;12.30;1.00
3312;DHT22;1668;49.648;8.570;2022-09-27T10:31:01;12.30;1.00
3312;DHT22;1668;49.648;8.570;2022-09-27T10:33:29;12.30;1.00
3312;DHT22;1668;49.648;8.570;2022-09-27T10:35:59;12.30;1.00
3312;DHT22;1668;49.648;8.570;2022-09-27T10:38:28;12.30;1.00
3312;DHT22;1668;49.648;8.570;2022-09-27T10:40:57;12.30;1.00
3312;DHT22;1668;49.648;8.570;2022-09-27T10:43:35;12.40;1.00
3312;DHT22;1668;49.648;8.570;2022-09-27T10:46:09;12.40;1.00
3312;DHT22;1668;49.648;8.570;2022-09-27T10:48:37;12.40;1.00
3312;DHT22;1668;49.648;8.570;2022-09-27T10:51:22;12.40;1.00
3312;DHT22;1668;49.648;8.570;2022-09-27T10:53:51;12.50;1.00
3312;DHT22;1668;49.648;8.570;2022-09-27T10:56:21;12.60;1.00
3312;DHT22;1668;49.648;8.570;2022-09-27T10:58:50;12.60;1.00
3312;DHT22;1668;49.648;8.570;2022-09-27T11:01:18;12.60;1.00
3312;DHT22;1668;49.648;8.570;2022-09-27T11:03:48;12.70;1.00
3312;DHT22;1668;49.648;8.570;2022-09-27T11:06:30;12.80;1.00
3312;DHT22;1668;49.648;8.570;2022-09-27T11:09:15;12.90;1.00
3312;DHT22;1668;49.648;8.570;2022-09-27T11:11:43;13.10;1.00
3312;DHT22;1668;49.648;8.570;2022-09-27T11:14:19;13.10;99.90
3312;DHT22;1668;49.648;8.570;2022-09-27T11:17:12;13.10;99.90
3312;DHT22;1668;49.648;8.570;2022-09-27T11:19:58;13.20;99.90
3312;DHT22;1668;49.648;8.570;2022-09-27T11:25:36;13.00;99.90
3312;DHT22;1668;49.648;8.570;2022-09-27T11:28:14;13.00;99.90
3312;DHT22;1668;49.648;8.570;2022-09-27T11:30:53;13.00;99.90
3312;DHT22;1668;49.648;8.570;2022-09-27T11:33:40;12.90;99.90
3312;DHT22;1668;49.648;8.570;2022-09-27T11:36:16;12.90;99.90
3312;DHT22;1668;49.648;8.570;2022-09-27T11:38:56;12.90;99.90
3312;DHT22;1668;49.648;8.570;2022-09-27T11:41:41;12.90;99.90
3312;DHT22;1668;49.648;8.570;2022-09-27T11:44:35;12.90;1.00
3312;DHT22;1668;49.648;8.570;2022-09-27T11:47:15;12.90;99.90
3312;DHT22;1668;49.648;8.570;2022-09-27T11:50:19;12.90;1.00
3312;DHT22;1668;49.648;8.570;2022-09-27T11:53:08;12.90;1.00
3312;DHT22;1668;49.648;8.570;2022-09-27T11:55:46;12.90;1.00
3312;DHT22;1668;49.648;8.570;2022-09-27T11:58:21;12.90;99.90
3312;DHT22;1668;49.648;8.570;2022-09-27T12:01:00;13.00;99.90
3312;DHT22;1668;49.648;8.570;2022-09-27T12:03:50;13.00;29.10
3312;DHT22;1668;49.648;8.570;2022-09-27T12:06:25;12.90;1.00
3312;DHT22;1668;49.648;8.570;2022-09-27T12:09:02;12.90;99.90
3312;DHT22;1668;49.648;8.570;2022-09-27T12:11:36;12.90;1.00
3312;DHT22;1668;49.648;8.570;2022-09-27T12:14:09;12.80;1.00
3312;DHT22;1668;49.648;8.570;2022-09-27T12:16:39;12.90;99.90
3312;DHT22;1668;49.648;8.570;2022-09-27T12:19:13;12.80;1.00
3312;DHT22;1668;49.648;8.570;2022-09-27T12:21:43;12.90;1.00
3312;DHT22;1668;49.648;8.570;2022-09-27T12:24:17;12.90;99.90
3312;DHT22;1668;49.648;8.570;2022-09-27T12:26:47;13.00;1.00
3312;DHT22;1668;49.648;8.570;2022-09-27T12:29:19;13.20;2.30
3312;DHT22;1668;49.648;8.570;2022-09-27T12:31:55;13.20;46.60
3312;DHT22;1668;49.648;8.570;2022-09-27T12:34:28;13.30;1.00
3312;DHT22;1668;49.648;8.570;2022-09-27T12:37:01;13.40;99.90
3312;DHT22;1668;49.648;8.570;2022-09-27T12:39:38;13.50;1.00
3312;DHT22;1668;49.648;8.570;2022-09-27T12:42:15;13.60;1.00
3312;DHT22;1668;49.648;8.570;2022-09-27T12:44:43;13.70;1.00
3312;DHT22;1668;49.648;8.570;2022-09-27T12:47:20;13.70;99.90
3312;DHT22;1668;49.648;8.570;2022-09-27T12:50:00;13.70;99.90
3312;DHT22;1668;49.648;8.570;2022-09-27T12:52:31;13.70;1.00
3312;DHT22;1668;49.648;8.570;2022-09-27T12:58:16;13.70;99.90
3312;DHT22;1668;49.648;8.570;2022-09-27T13:00:52;13.70;1.00
3312;DHT22;1668;49.648;8.570;2022-09-27T13:03:43;13.70;1.00
3312;DHT22;1668;49.648;8.570;2022-09-27T13:06:29;13.70;90.90
3312;DHT22;1668;49.648;8.570;2022-09-27T13:09:27;13.80;99.90
3312;DHT22;1668;49.648;8.570;2022-09-27T13:12:02;13.80;99.90
3312;DHT22;1668;49.648;8.570;2022-09-27T13:14:40;13.80;56.60
3312;DHT22;1668;49.648;8.570;2022-09-27T13:20:38;13.60;80.20
3312;DHT22;1668;49.648;8.570;2022-09-27T13:26:21;13.40;1.00
3312;DHT22;1668;49.648;8.570;2022-09-27T13:28:59;13.30;99.90
3312;DHT22;1668;49.648;8.570;2022-09-27T13:34:41;13.00;99.90
3312;DHT22;1668;49.648;8.570;2022-09-27T13:37:33;13.00;1.00
3312;DHT22;1668;49.648;8.570;2022-09-27T13:40:24;13.00;1.00
3312;DHT22;1668;49.648;8.570;2022-09-27T13:45:50;13.00;1.00
3312;DHT22;1668;49.648;8.570;2022-09-27T13:48:29;13.10;99.90
3312;DHT22;1668;49.648;8.570;2022-09-27T13:51:02;13.20;99.90
3312;DHT22;1668;49.648;8.570;2022-09-27T13:53:36;13.20;1.00
3312;DHT22;1668;49.648;8.570;2022-09-27T13:56:04;13.20;1.00
3312;DHT22;1668;49.648;8.570;2022-09-27T13:58:43;13.20;1.00
3312;DHT22;1668;49.648;8.570;2022-09-27T14:01:18;13.30;43.50
3312;DHT22;1668;49.648;8.570;2022-09-27T14:03:54;13.30;99.90
3312;DHT22;1668;49.648;8.570;2022-09-27T14:06:25;13.30;1.00
3312;DHT22;1668;49.648;8.570;2022-09-27T14:08:55;13.30;99.90
3312;DHT22;1668;49.648;8.570;2022-09-27T14:11:26;13.30;65.30
3312;DHT22;1668;49.648;8.570;2022-09-27T14:13:54;13.30;1.00
3312;DHT22;1668;49.648;8.570;2022-09-27T14:16:21;13.20;1.00
3312;DHT22;1668;49.648;8.570;2022-09-27T14:18:52;13.20;1.00
3312;DHT22;1668;49.648;8.570;2022-09-27T14:21:29;13.20;1.00
3312;DHT22;1668;49.648;8.570;2022-09-27T14:24:42;13.10;1.00
3312;DHT22;1668;49.648;8.570;2022-09-27T14:27:12;13.10;99.90
3312;DHT22;1668;49.648;8.570;2022-09-27T14:29:44;13.10;99.90
3312;DHT22;1668;49.648;8.570;2022-09-27T14:32:12;13.10;1.00
3312;DHT22;1668;49.648;8.570;2022-09-27T14:34:41;13.10;1.00
3312;DHT22;1668;49.648;8.570;2022-09-27T14:37:21;13.00;73.10
3312;DHT22;1668;49.648;8.570;2022-09-27T14:40:17;13.00;1.00
3312;DHT22;1668;49.648;8.570;2022-09-27T14:42:45;13.00;1.00
3312;DHT22;1668;49.648;8.570;2022-09-27T14:45:19;13.00;1.00
3312;DHT22;1668;49.648;8.570;2022-09-27T14:47:47;13.00;1.00
3312;DHT22;1668;49.648;8.570;2022-09-27T14:50:19;13.00;23.20
3312;DHT22;1668;49.648;8.570;2022-09-27T14:52:48;12.90;99.90
3312;DHT22;1668;49.648;8.570;2022-09-27T14:55:21;12.90;99.90
3312;DHT22;1668;49.648;8.570;2022-09-27T14:57:50;12.90;42.90
3312;DHT22;1668;49.648;8.570;2022-09-27T15:00:20;12.80;1.00
3312;DHT22;1668;49.648;8.570;2022-09-27T15:02:49;12.80;1.00
3312;DHT22;1668;49.648;8.570;2022-09-27T15:05:20;12.80;1.00
3312;DHT22;1668;49.648;8.570;2022-09-27T15:07:49;12.70;99.90
3312;DHT22;1668;49.648;8.570;2022-09-27T15:10:18;12.70;36.50
3312;DHT22;1668;49.648;8.570;2022-09-27T15:12:47;12.70;99.90
3312;DHT22;1668;49.648;8.570;2022-09-27T15:15:19;12.70;1.00
3312;DHT22;1668;49.648;8.570;2022-09-27T15:17:47;12.60;37.10
3312;DHT22;1668;49.648;8.570;2022-09-27T15:20:20;12.70;99.90
3312;DHT22;1668;49.648;8.570;2022-09-27T15:22:50;12.70;1.00
3312;DHT22;1668;49.648;8.570;2022-09-27T15:25:24;12.70;1.00
3312;DHT22;1668;49.648;8.570;2022-09-27T15:27:58;12.70;16.70
3312;DHT22;1668;49.648;8.570;2022-09-27T15:30:27;12.70;1.00
3312;DHT22;1668;49.648;8.570;2022-09-27T15:32:55;12.70;1.00
3312;DHT22;1668;49.648;8.570;2022-09-27T15:35:27;12.60;1.00
3312;DHT22;1668;49.648;8.570;2022-09-27T15:38:19;12.60;99.90
3312;DHT22;1668;49.648;8.570;2022-09-27T15:41:01;12.60;1.00
3312;DHT22;1668;49.648;8.570;2022-09-27T15:43:31;12.50;1.00
3312;DHT22;1668;49.648;8.570;2022-09-27T15:46:01;12.50;99.90
3312;DHT22;1668;49.648;8.570;2022-09-27T15:48:30;12.40;66.70
3312;DHT22;1668;49.648;8.570;2022-09-27T15:50:58;12.40;99.90
3312;DHT22;1668;49.648;8.570;2022-09-27T15:53:43;12.30;1.00
3312;DHT22;1668;49.648;8.570;2022-09-27T15:56:13;12.20;36.00
3312;DHT22;1668;49.648;8.570;2022-09-27T15:58:40;12.10;99.90
3312;DHT22;1668;49.648;8.570;2022-09-27T16:01:19;12.00;85.80
3312;DHT22;1668;49.648;8.570;2022-09-27T16:03:48;12.00;99.20
3312;DHT22;1668;49.648;8.570;2022-09-27T16:06:15;12.00;99.90
3312;DHT22;1668;49.648;8.570;2022-09-27T16:08:44;12.00;99.90
3312;DHT22;1668;49.648;8.570;2022-09-27T16:11:14;11.90;99.90
3312;DHT22;1668;49.648;8.570;2022-09-27T16:13:42;11.90;99.90
3312;DHT22;1668;49.648;8.570;2022-09-27T16:16:14;11.80;99.90
3312;DHT22;1668;49.648;8.570;2022-09-27T16:18:43;11.80;99.90
3312;DHT22;1668;49.648;8.570;2022-09-27T16:21:10;11.70;99.90
3312;DHT22;1668;49.648;8.570;2022-09-27T16:23:39;11.70;99.90
3312;DHT22;1668;49.648;8.570;2022-09-27T16:26:07;11.70;99.90
3312;DHT22;1668;49.648;8.570;2022-09-27T16:28:34;11.70;99.90
3312;DHT22;1668;49.648;8.570;2022-09-27T16:31:03;11.70;99.90
3312;DHT22;1668;49.648;8.570;2022-09-27T16:33:30;11.70;99.90
3312;DHT22;1668;49.648;8.570;2022-09-27T16:35:59;11.70;99.90
3312;DHT22;1668;49.648;8.570;2022-09-27T16:38:27;11.70;99.90
3312;DHT22;1668;49.648;8.570;2022-09-27T16:40:59;11.70;99.90
3312;DHT22;1668;49.648;8.570;2022-09-27T16:43:29;11.70;99.90
3312;DHT22;1668;49.648;8.570;2022-09-27T16:46:03;11.70;99.90
3312;DHT22;1668;49.648;8.570;2022-09-27T16:48:31;11.70;99.90
3312;DHT22;1668;49.648;8.570;2022-09-27T16:51:03;11.70;99.90
3312;DHT22;1668;49.648;8.570;2022-09-27T16:53:48;11.60;99.90
3312;DHT22;1668;49.648;8.570;2022-09-27T16:56:15;11.60;99.90
3312;DHT22;1668;49.648;8.570;2022-09-27T16:58:43;11.60;99.90
3312;DHT22;1668;49.648;8.570;2022-09-27T17:01:10;11.50;99.90
3312;DHT22;1668;49.648;8.570;2022-09-27T17:03:37;11.50;99.90